sensor_id;sensor_type;location;lat;lon;timestamp;P1;durP1;ratioP1;P2;durP2;ratioP2
5133;SDS011;2585;48.696;10.066;2023-04-06T00:00:25;15.85;;;8.32;;
5133;SDS011;2585;48.696;10.066;2023-04-06T00:02:52;16.25;;;8.40;;
5133;SDS011;2585;48.696;10.066;2023-04-06T00:05:19;14.00;;;8.02;;
5133;SDS011;2585;48.696;10.066;2023-04-06T00:07:46;12.00;;;6.88;;
5133;SDS011;2585;48.696;10.066;2023-04-06T00:10:13;13.60;;;6.70;;
5133;SDS011;2585;48.696;10.066;2023-04-06T00:12:40;16.50;;;8.40;;
5133;SDS011;2585;48.696;10.066;2023-04-06T00:15:07;12.57;;;7.43;;
5133;SDS011;2585;48.696;10.066;2023-04-06T00:17:34;15.20;;;8.07;;
5133;SDS011;2585;48.696;10.066;2023-04-06T00:20:02;12.38;;;6.57;;
5133;SDS011;2585;48.696;10.066;2023-04-06T00:22:29;10.95;;;6.63;;
5133;SDS011;2585;48.696;10.066;2023-04-06T00:24:56;12.75;;;6.50;;
5133;SDS011;2585;48.696;10.066;2023-04-06T00:27:22;8.77;;;5.75;;
5133;SDS011;2585;48.696;10.066;2023-04-06T00:29:49;11.65;;;6.57;;
5133;SDS011;2585;48.696;10.066;2023-04-06T00:32:16;11.15;;;7.00;;
5133;SDS011;2585;48.696;10.066;2023-04-06T00:34:43;17.30;;;7.78;;
5133;SDS011;2585;48.696;10.066;2023-04-06T00:37:10;9.70;;;6.07;;
5133;SDS011;2585;48.696;10.066;2023-04-06T00:39:38;10.57;;;6.68;;
5133;SDS011;2585;48.696;10.066;2023-04-06T00:42:10;8.70;;;6.18;;
5133;SDS011;2585;48.696;10.066;2023-04-06T00:44:41;9.60;;;6.20;;
5133;SDS011;2585;48.696;10.066;2023-04-06T00:47:08;12.15;;;7.32;;
5133;SDS011;2585;48.696;10.066;2023-04-06T00:49:35;9.63;;;6.55;;
5133;SDS011;2585;48.696;10.066;2023-04-06T00:52:02;10.73;;;6.68;;
5133;SDS011;2585;48.696;10.066;2023-04-06T00:54:29;11.80;;;6.90;;
5133;SDS011;2585;48.696;10.066;2023-04-06T00:56:56;12.15;;;6.63;;
5133;SDS011;2585;48.696;10.066;2023-04-06T00:59:23;10.20;;;6.28;;
5133;SDS011;2585;48.696;10.066;2023-04-06T01:01:51;11.27;;;6.70;;
5133;SDS011;2585;48.696;10.066;2023-04-06T01:04:18;10.82;;;7.07;;
5133;SDS011;2585;48.696;10.066;2023-04-06T01:06:45;10.85;;;6.85;;
5133;SDS011;2585;48.696;10.066;2023-04-06T01:09:11;11.35;;;7.10;;
5133;SDS011;2585;48.696;10.066;2023-04-06T01:11:38;13.52;;;6.57;;
5133;SDS011;2585;48.696;10.066;2023-04-06T01:14:05;10.05;;;6.80;;
5133;SDS011;2585;48.696;10.066;2023-04-06T01:16:32;9.52;;;6.28;;
5133;SDS011;2585;48.696;10.066;2023-04-06T01:19:00;9.15;;;6.53;;
5133;SDS011;2585;48.696;10.066;2023-04-06T01:21:27;11.15;;;7.53;;
5133;SDS011;2585;48.696;10.066;2023-04-06T01:23:54;12.02;;;7.38;;
5133;SDS011;2585;48.696;10.066;2023-04-06T01:26:21;9.68;;;6.20;;
5133;SDS011;2585;48.696;10.066;2023-04-06T01:28:48;9.90;;;6.47;;
5133;SDS011;2585;48.696;10.066;2023-04-06T01:31:14;12.65;;;7.38;;
5133;SDS011;2585;48.696;10.066;2023-04-06T01:33:41;11.93;;;6.05;;
5133;SDS011;2585;48.696;10.066;2023-04-06T01:36:08;10.95;;;6.70;;
5133;SDS011;2585;48.696;10.066;2023-04-06T01:38:35;10.57;;;6.53;;
5133;SDS011;2585;48.696;10.066;2023-04-06T01:41:02;10.55;;;6.90;;
5133;SDS011;2585;48.696;10.066;2023-04-06T01:43:29;13.52;;;7.93;;
5133;SDS011;2585;48.696;10.066;2023-04-06T01:45:56;11.23;;;6.88;;
5133;SDS011;2585;48.696;10.066;2023-04-06T01:48:22;8.68;;;6.55;;
5133;SDS011;2585;48.696;10.066;2023-04-06T01:50:49;12.63;;;6.53;;
5133;SDS011;2585;48.696;10.066;2023-04-06T01:53:16;11.75;;;7.10;;
5133;SDS011;2585;48.696;10.066;2023-04-06T01:55:43;10.80;;;7.47;;
5133;SDS011;2585;48.696;10.066;2023-04-06T01:58:10;11.82;;;7.30;;
5133;SDS011;2585;48.696;10.066;2023-04-06T02:00:37;16.27;;;7.47;;
5133;SDS011;2585;48.696;10.066;2023-04-06T02:03:04;9.70;;;6.65;;
5133;SDS011;2585;48.696;10.066;2023-04-06T02:05:31;11.27;;;6.82;;
5133;SDS011;2585;48.696;10.066;2023-04-06T02:08:04;11.95;;;6.75;;
5133;SDS011;2585;48.696;10.066;2023-04-06T02:10:31;16.50;;;7.90;;
5133;SDS011;2585;48.696;10.066;2023-04-06T02:12:58;8.27;;;6.28;;
5133;SDS011;2585;48.696;10.066;2023-04-06T02:15:26;10.50;;;7.18;;
5133;SDS011;2585;48.696;10.066;2023-04-06T02:17:53;16.17;;;6.30;;
5133;SDS011;2585;48.696;10.066;2023-04-06T02:20:20;13.40;;;6.63;;
5133;SDS011;2585;48.696;10.066;2023-04-06T02:22:47;14.82;;;7.95;;
5133;SDS011;2585;48.696;10.066;2023-04-06T02:25:14;14.40;;;6.82;;
5133;SDS011;2585;48.696;10.066;2023-04-06T02:27:40;11.75;;;7.57;;
5133;SDS011;2585;48.696;10.066;2023-04-06T02:30:07;11.88;;;6.75;;
5133;SDS011;2585;48.696;10.066;2023-04-06T02:32:34;18.13;;;8.02;;
5133;SDS011;2585;48.696;10.066;2023-04-06T02:35:01;10.85;;;8.27;;
5133;SDS011;2585;48.696;10.066;2023-04-06T02:37:28;13.50;;;7.28;;
5133;SDS011;2585;48.696;10.066;2023-04-06T02:39:55;14.30;;;7.57;;
5133;SDS011;2585;48.696;10.066;2023-04-06T02:42:22;11.55;;;7.43;;
5133;SDS011;2585;48.696;10.066;2023-04-06T02:44:49;12.88;;;7.97;;
5133;SDS011;2585;48.696;10.066;2023-04-06T02:47:16;13.98;;;7.78;;
5133;SDS011;2585;48.696;10.066;2023-04-06T02:49:43;14.27;;;7.40;;
5133;SDS011;2585;48.696;10.066;2023-04-06T02:52:12;11.05;;;6.80;;
5133;SDS011;2585;48.696;10.066;2023-04-06T02:54:38;12.25;;;7.18;;
5133;SDS011;2585;48.696;10.066;2023-04-06T02:57:05;14.38;;;6.75;;
5133;SDS011;2585;48.696;10.066;2023-04-06T02:59:32;13.75;;;7.78;;
5133;SDS011;2585;48.696;10.066;2023-04-06T03:01:59;15.13;;;8.38;;
5133;SDS011;2585;48.696;10.066;2023-04-06T03:04:26;16.92;;;8.60;;
5133;SDS011;2585;48.696;10.066;2023-04-06T03:06:53;11.85;;;7.82;;
5133;SDS011;2585;48.696;10.066;2023-04-06T03:09:21;15.95;;;7.88;;
5133;SDS011;2585;48.696;10.066;2023-04-06T03:11:48;13.48;;;7.72;;
5133;SDS011;2585;48.696;10.066;2023-04-06T03:14:15;12.27;;;6.85;;
5133;SDS011;2585;48.696;10.066;2023-04-06T03:16:43;12.43;;;7.18;;
5133;SDS011;2585;48.696;10.066;2023-04-06T03:19:10;14.82;;;8.18;;
5133;SDS011;2585;48.696;10.066;2023-04-06T03:21:37;14.07;;;7.70;;
5133;SDS011;2585;48.696;10.066;2023-04-06T03:24:04;13.75;;;7.50;;
5133;SDS011;2585;48.696;10.066;2023-04-06T03:26:32;13.77;;;7.45;;
5133;SDS011;2585;48.696;10.066;2023-04-06T03:28:58;12.15;;;7.20;;
5133;SDS011;2585;48.696;10.066;2023-04-06T03:31:26;9.35;;;6.82;;
5133;SDS011;2585;48.696;10.066;2023-04-06T03:33:53;16.33;;;7.70;;
5133;SDS011;2585;48.696;10.066;2023-04-06T03:36:20;11.48;;;6.90;;
5133;SDS011;2585;48.696;10.066;2023-04-06T03:38:46;12.98;;;6.75;;
5133;SDS011;2585;48.696;10.066;2023-04-06T03:41:13;12.55;;;7.45;;
5133;SDS011;2585;48.696;10.066;2023-04-06T03:43:40;12.18;;;6.82;;
5133;SDS011;2585;48.696;10.066;2023-04-06T03:46:07;12.93;;;7.82;;
5133;SDS011;2585;48.696;10.066;2023-04-06T03:48:34;17.80;;;7.15;;
5133;SDS011;2585;48.696;10.066;2023-04-06T03:51:01;13.75;;;7.05;;
5133;SDS011;2585;48.696;10.066;2023-04-06T03:53:28;12.85;;;8.00;;
5133;SDS011;2585;48.696;10.066;2023-04-06T03:55:55;12.02;;;8.02;;
5133;SDS011;2585;48.696;10.066;2023-04-06T03:58:21;13.32;;;7.60;;
5133;SDS011;2585;48.696;10.066;2023-04-06T04:00:48;9.95;;;7.40;;
5133;SDS011;2585;48.696;10.066;2023-04-06T04:03:15;14.00;;;8.07;;
5133;SDS011;2585;48.696;10.066;2023-04-06T04:05:42;11.57;;;7.43;;
5133;SDS011;2585;48.696;10.066;2023-04-06T04:08:09;11.23;;;7.13;;
5133;SDS011;2585;48.696;10.066;2023-04-06T04:10:36;10.52;;;6.57;;
5133;SDS011;2585;48.696;10.066;2023-04-06T04:13:03;10.10;;;6.80;;
5133;SDS011;2585;48.696;10.066;2023-04-06T04:15:30;13.05;;;7.32;;
5133;SDS011;2585;48.696;10.066;2023-04-06T04:17:56;12.30;;;6.82;;
5133;SDS011;2585;48.696;10.066;2023-04-06T04:20:23;13.65;;;7.72;;
5133;SDS011;2585;48.696;10.066;2023-04-06T04:22:50;12.30;;;7.35;;
5133;SDS011;2585;48.696;10.066;2023-04-06T04:25:17;12.15;;;7.60;;
5133;SDS011;2585;48.696;10.066;2023-04-06T04:27:44;13.55;;;7.28;;
5133;SDS011;2585;48.696;10.066;2023-04-06T04:30:11;11.55;;;7.90;;
5133;SDS011;2585;48.696;10.066;2023-04-06T04:32:37;17.02;;;10.40;;
5133;SDS011;2585;48.696;10.066;2023-04-06T04:35:04;12.55;;;7.88;;
5133;SDS011;2585;48.696;10.066;2023-04-06T04:37:32;12.27;;;8.18;;
5133;SDS011;2585;48.696;10.066;2023-04-06T04:40:00;12.77;;;7.43;;
5133;SDS011;2585;48.696;10.066;2023-04-06T04:42:27;14.68;;;8.45;;
5133;SDS011;2585;48.696;10.066;2023-04-06T04:44:54;9.52;;;7.25;;
5133;SDS011;2585;48.696;10.066;2023-04-06T04:47:21;13.55;;;8.05;;
5133;SDS011;2585;48.696;10.066;2023-04-06T04:49:48;14.88;;;7.25;;
5133;SDS011;2585;48.696;10.066;2023-04-06T04:52:15;15.55;;;8.40;;
5133;SDS011;2585;48.696;10.066;2023-04-06T04:54:41;16.80;;;7.35;;
5133;SDS011;2585;48.696;10.066;2023-04-06T04:57:08;16.63;;;8.70;;
5133;SDS011;2585;48.696;10.066;2023-04-06T04:59:35;16.77;;;9.50;;
5133;SDS011;2585;48.696;10.066;2023-04-06T05:02:02;12.93;;;8.45;;
5133;SDS011;2585;48.696;10.066;2023-04-06T05:04:29;15.10;;;8.70;;
5133;SDS011;2585;48.696;10.066;2023-04-06T05:07:03;15.13;;;8.77;;
5133;SDS011;2585;48.696;10.066;2023-04-06T05:09:34;16.90;;;8.05;;
5133;SDS011;2585;48.696;10.066;2023-04-06T05:12:01;14.57;;;8.05;;
5133;SDS011;2585;48.696;10.066;2023-04-06T05:14:28;13.07;;;7.65;;
5133;SDS011;2585;48.696;10.066;2023-04-06T05:16:55;11.77;;;6.90;;
5133;SDS011;2585;48.696;10.066;2023-04-06T05:19:22;12.70;;;7.28;;
5133;SDS011;2585;48.696;10.066;2023-04-06T05:21:49;10.20;;;7.30;;
5133;SDS011;2585;48.696;10.066;2023-04-06T05:24:16;12.77;;;7.50;;
5133;SDS011;2585;48.696;10.066;2023-04-06T05:26:43;13.02;;;7.18;;
5133;SDS011;2585;48.696;10.066;2023-04-06T05:29:10;12.63;;;8.07;;
5133;SDS011;2585;48.696;10.066;2023-04-06T05:31:40;13.50;;;7.57;;
5133;SDS011;2585;48.696;10.066;2023-04-06T05:34:13;14.38;;;7.28;;
5133;SDS011;2585;48.696;10.066;2023-04-06T05:36:40;10.80;;;7.53;;
5133;SDS011;2585;48.696;10.066;2023-04-06T05:39:07;14.70;;;8.85;;
5133;SDS011;2585;48.696;10.066;2023-04-06T05:41:34;13.93;;;7.82;;
5133;SDS011;2585;48.696;10.066;2023-04-06T05:44:01;14.60;;;9.07;;
5133;SDS011;2585;48.696;10.066;2023-04-06T05:46:28;17.15;;;11.05;;
5133;SDS011;2585;48.696;10.066;2023-04-06T05:48:55;17.35;;;10.88;;
5133;SDS011;2585;48.696;10.066;2023-04-06T05:51:22;22.33;;;10.80;;
5133;SDS011;2585;48.696;10.066;2023-04-06T05:53:49;16.52;;;9.68;;
5133;SDS011;2585;48.696;10.066;2023-04-06T05:56:16;17.10;;;10.25;;
5133;SDS011;2585;48.696;10.066;2023-04-06T05:58:42;15.48;;;10.50;;
5133;SDS011;2585;48.696;10.066;2023-04-06T06:01:09;13.40;;;9.20;;
5133;SDS011;2585;48.696;10.066;2023-04-06T06:03:36;18.27;;;10.05;;
5133;SDS011;2585;48.696;10.066;2023-04-06T06:06:03;15.43;;;9.30;;
5133;SDS011;2585;48.696;10.066;2023-04-06T06:08:31;15.82;;;9.90;;
5133;SDS011;2585;48.696;10.066;2023-04-06T06:10:57;14.90;;;8.88;;
5133;SDS011;2585;48.696;10.066;2023-04-06T06:13:24;19.55;;;10.52;;
5133;SDS011;2585;48.696;10.066;2023-04-06T06:15:51;13.15;;;8.70;;
5133;SDS011;2585;48.696;10.066;2023-04-06T06:18:18;23.55;;;9.95;;
5133;SDS011;2585;48.696;10.066;2023-04-06T06:20:45;14.80;;;9.25;;
5133;SDS011;2585;48.696;10.066;2023-04-06T06:23:12;16.83;;;9.13;;
5133;SDS011;2585;48.696;10.066;2023-04-06T06:25:39;13.15;;;8.40;;
5133;SDS011;2585;48.696;10.066;2023-04-06T06:28:06;23.42;;;9.75;;
5133;SDS011;2585;48.696;10.066;2023-04-06T06:30:32;23.52;;;9.80;;
5133;SDS011;2585;48.696;10.066;2023-04-06T06:32:59;14.65;;;8.45;;
5133;SDS011;2585;48.696;10.066;2023-04-06T06:35:27;17.35;;;10.55;;
5133;SDS011;2585;48.696;10.066;2023-04-06T06:37:54;26.58;;;10.85;;
5133;SDS011;2585;48.696;10.066;2023-04-06T06:40:20;15.95;;;9.55;;
5133;SDS011;2585;48.696;10.066;2023-04-06T06:42:50;20.33;;;10.60;;
5133;SDS011;2585;48.696;10.066;2023-04-06T06:45:17;19.15;;;11.55;;
5133;SDS011;2585;48.696;10.066;2023-04-06T06:47:44;19.88;;;10.35;;
5133;SDS011;2585;48.696;10.066;2023-04-06T06:50:11;22.23;;;12.00;;
5133;SDS011;2585;48.696;10.066;2023-04-06T06:52:39;20.17;;;11.70;;
5133;SDS011;2585;48.696;10.066;2023-04-06T06:55:06;19.25;;;10.48;;
5133;SDS011;2585;48.696;10.066;2023-04-06T06:57:34;20.48;;;11.20;;
5133;SDS011;2585;48.696;10.066;2023-04-06T07:00:01;19.90;;;11.65;;
5133;SDS011;2585;48.696;10.066;2023-04-06T07:02:29;20.33;;;11.55;;
5133;SDS011;2585;48.696;10.066;2023-04-06T07:04:57;17.95;;;9.23;;
5133;SDS011;2585;48.696;10.066;2023-04-06T07:07:23;22.42;;;11.10;;
5133;SDS011;2585;48.696;10.066;2023-04-06T07:09:50;21.85;;;11.40;;
5133;SDS011;2585;48.696;10.066;2023-04-06T07:12:17;20.75;;;11.07;;
5133;SDS011;2585;48.696;10.066;2023-04-06T07:14:44;19.05;;;8.98;;
5133;SDS011;2585;48.696;10.066;2023-04-06T07:17:11;11.95;;;8.77;;
5133;SDS011;2585;48.696;10.066;2023-04-06T07:19:38;14.35;;;9.23;;
5133;SDS011;2585;48.696;10.066;2023-04-06T07:22:05;10.90;;;7.55;;
5133;SDS011;2585;48.696;10.066;2023-04-06T07:24:32;12.38;;;9.25;;
5133;SDS011;2585;48.696;10.066;2023-04-06T07:26:59;11.98;;;7.72;;
5133;SDS011;2585;48.696;10.066;2023-04-06T07:29:26;14.38;;;7.90;;
5133;SDS011;2585;48.696;10.066;2023-04-06T07:31:54;14.13;;;9.25;;
5133;SDS011;2585;48.696;10.066;2023-04-06T07:34:21;12.77;;;8.18;;
5133;SDS011;2585;48.696;10.066;2023-04-06T07:36:48;21.15;;;7.47;;
5133;SDS011;2585;48.696;10.066;2023-04-06T07:39:15;18.67;;;9.65;;
5133;SDS011;2585;48.696;10.066;2023-04-06T07:41:42;14.05;;;9.07;;
5133;SDS011;2585;48.696;10.066;2023-04-06T07:44:09;14.40;;;9.02;;
5133;SDS011;2585;48.696;10.066;2023-04-06T07:46:36;14.48;;;8.68;;
5133;SDS011;2585;48.696;10.066;2023-04-06T07:49:03;11.98;;;8.57;;
5133;SDS011;2585;48.696;10.066;2023-04-06T07:51:30;13.90;;;8.23;;
5133;SDS011;2585;48.696;10.066;2023-04-06T07:53:57;12.17;;;8.10;;
5133;SDS011;2585;48.696;10.066;2023-04-06T07:56:24;13.53;;;9.30;;
5133;SDS011;2585;48.696;10.066;2023-04-06T07:58:51;12.63;;;8.70;;
5133;SDS011;2585;48.696;10.066;2023-04-06T08:01:21;15.47;;;9.17;;
5133;SDS011;2585;48.696;10.066;2023-04-06T08:03:48;16.00;;;9.40;;
5133;SDS011;2585;48.696;10.066;2023-04-06T08:06:16;15.23;;;8.90;;
5133;SDS011;2585;48.696;10.066;2023-04-06T08:08:43;14.40;;;8.47;;
5133;SDS011;2585;48.696;10.066;2023-04-06T08:11:10;18.33;;;9.53;;
5133;SDS011;2585;48.696;10.066;2023-04-06T08:13:37;12.93;;;8.87;;
5133;SDS011;2585;48.696;10.066;2023-04-06T08:16:04;14.20;;;8.73;;
5133;SDS011;2585;48.696;10.066;2023-04-06T08:18:31;16.50;;;8.90;;
5133;SDS011;2585;48.696;10.066;2023-04-06T08:20:58;19.87;;;9.53;;
5133;SDS011;2585;48.696;10.066;2023-04-06T08:23:25;12.10;;;8.70;;
5133;SDS011;2585;48.696;10.066;2023-04-06T08:25:52;18.90;;;8.70;;
5133;SDS011;2585;48.696;10.066;2023-04-06T08:28:20;15.53;;;9.37;;
5133;SDS011;2585;48.696;10.066;2023-04-06T08:30:47;14.03;;;9.17;;
5133;SDS011;2585;48.696;10.066;2023-04-06T08:33:14;13.17;;;8.70;;
5133;SDS011;2585;48.696;10.066;2023-04-06T08:35:41;20.63;;;9.60;;
5133;SDS011;2585;48.696;10.066;2023-04-06T08:38:08;15.13;;;8.83;;
5133;SDS011;2585;48.696;10.066;2023-04-06T08:40:36;15.73;;;9.13;;
5133;SDS011;2585;48.696;10.066;2023-04-06T08:43:04;16.23;;;7.90;;
5133;SDS011;2585;48.696;10.066;2023-04-06T08:45:35;14.27;;;8.80;;
5133;SDS011;2585;48.696;10.066;2023-04-06T08:48:02;17.03;;;9.87;;
5133;SDS011;2585;48.696;10.066;2023-04-06T08:50:29;15.00;;;9.30;;
5133;SDS011;2585;48.696;10.066;2023-04-06T08:52:58;14.23;;;9.90;;
5133;SDS011;2585;48.696;10.066;2023-04-06T08:55:26;13.23;;;8.20;;
5133;SDS011;2585;48.696;10.066;2023-04-06T08:58:00;15.17;;;8.77;;
5133;SDS011;2585;48.696;10.066;2023-04-06T09:00:27;19.00;;;9.43;;
5133;SDS011;2585;48.696;10.066;2023-04-06T09:02:55;16.77;;;9.90;;
5133;SDS011;2585;48.696;10.066;2023-04-06T09:05:24;14.93;;;9.37;;
5133;SDS011;2585;48.696;10.066;2023-04-06T09:07:52;13.27;;;8.23;;
5133;SDS011;2585;48.696;10.066;2023-04-06T09:10:19;12.77;;;8.53;;
5133;SDS011;2585;48.696;10.066;2023-04-06T09:12:46;11.80;;;7.77;;
5133;SDS011;2585;48.696;10.066;2023-04-06T09:15:17;12.10;;;8.30;;
5133;SDS011;2585;48.696;10.066;2023-04-06T09:17:49;10.97;;;7.63;;
5133;SDS011;2585;48.696;10.066;2023-04-06T09:20:22;14.13;;;8.30;;
5133;SDS011;2585;48.696;10.066;2023-04-06T09:22:52;15.60;;;7.93;;
5133;SDS011;2585;48.696;10.066;2023-04-06T09:25:23;13.53;;;8.03;;
5133;SDS011;2585;48.696;10.066;2023-04-06T09:28:09;12.97;;;8.33;;
5133;SDS011;2585;48.696;10.066;2023-04-06T09:30:36;10.17;;;7.33;;
5133;SDS011;2585;48.696;10.066;2023-04-06T09:33:21;10.37;;;7.33;;
5133;SDS011;2585;48.696;10.066;2023-04-06T09:35:49;13.67;;;8.40;;
5133;SDS011;2585;48.696;10.066;2023-04-06T09:38:17;15.73;;;8.90;;
5133;SDS011;2585;48.696;10.066;2023-04-06T09:40:47;9.73;;;7.43;;
5133;SDS011;2585;48.696;10.066;2023-04-06T09:43:26;10.53;;;7.70;;
5133;SDS011;2585;48.696;10.066;2023-04-06T09:45:55;9.40;;;6.40;;
5133;SDS011;2585;48.696;10.066;2023-04-06T09:48:23;12.93;;;7.83;;
5133;SDS011;2585;48.696;10.066;2023-04-06T09:50:56;10.60;;;7.50;;
5133;SDS011;2585;48.696;10.066;2023-04-06T09:53:29;11.03;;;7.23;;
5133;SDS011;2585;48.696;10.066;2023-04-06T09:55:59;9.53;;;6.97;;
5133;SDS011;2585;48.696;10.066;2023-04-06T09:58:28;13.40;;;7.67;;
5133;SDS011;2585;48.696;10.066;2023-04-06T10:01:09;10.30;;;7.20;;
5133;SDS011;2585;48.696;10.066;2023-04-06T10:03:45;7.50;;;6.63;;
5133;SDS011;2585;48.696;10.066;2023-04-06T10:06:25;11.23;;;7.17;;
5133;SDS011;2585;48.696;10.066;2023-04-06T10:08:55;7.37;;;6.43;;
5133;SDS011;2585;48.696;10.066;2023-04-06T10:11:23;9.90;;;7.03;;
5133;SDS011;2585;48.696;10.066;2023-04-06T10:13:50;12.50;;;8.13;;
5133;SDS011;2585;48.696;10.066;2023-04-06T10:16:17;16.03;;;6.80;;
5133;SDS011;2585;48.696;10.066;2023-04-06T10:18:46;11.93;;;7.10;;
5133;SDS011;2585;48.696;10.066;2023-04-06T10:21:22;13.17;;;7.70;;
5133;SDS011;2585;48.696;10.066;2023-04-06T10:23:54;10.43;;;6.77;;
5133;SDS011;2585;48.696;10.066;2023-04-06T10:26:25;9.80;;;7.13;;
5133;SDS011;2585;48.696;10.066;2023-04-06T10:28:52;8.77;;;6.80;;
5133;SDS011;2585;48.696;10.066;2023-04-06T10:31:27;11.40;;;7.20;;
5133;SDS011;2585;48.696;10.066;2023-04-06T10:33:59;11.83;;;7.10;;
5133;SDS011;2585;48.696;10.066;2023-04-06T10:36:35;9.50;;;6.93;;
5133;SDS011;2585;48.696;10.066;2023-04-06T10:39:03;9.73;;;6.80;;
5133;SDS011;2585;48.696;10.066;2023-04-06T10:41:41;10.40;;;6.63;;
5133;SDS011;2585;48.696;10.066;2023-04-06T10:44:30;8.93;;;6.50;;
5133;SDS011;2585;48.696;10.066;2023-04-06T10:46:57;9.27;;;6.87;;
5133;SDS011;2585;48.696;10.066;2023-04-06T10:49:26;9.03;;;7.50;;
5133;SDS011;2585;48.696;10.066;2023-04-06T10:51:54;8.30;;;5.97;;
5133;SDS011;2585;48.696;10.066;2023-04-06T10:54:23;9.40;;;7.30;;
5133;SDS011;2585;48.696;10.066;2023-04-06T10:56:52;9.20;;;6.83;;
5133;SDS011;2585;48.696;10.066;2023-04-06T10:59:22;11.43;;;7.40;;
5133;SDS011;2585;48.696;10.066;2023-04-06T11:01:51;9.70;;;6.70;;
5133;SDS011;2585;48.696;10.066;2023-04-06T11:04:19;12.27;;;6.93;;
5133;SDS011;2585;48.696;10.066;2023-04-06T11:06:47;9.23;;;6.00;;
5133;SDS011;2585;48.696;10.066;2023-04-06T11:09:25;9.43;;;6.50;;
5133;SDS011;2585;48.696;10.066;2023-04-06T11:11:53;10.30;;;7.70;;
5133;SDS011;2585;48.696;10.066;2023-04-06T11:14:21;10.17;;;7.20;;
5133;SDS011;2585;48.696;10.066;2023-04-06T11:16:48;11.00;;;7.33;;
5133;SDS011;2585;48.696;10.066;2023-04-06T11:19:18;9.90;;;7.90;;
5133;SDS011;2585;48.696;10.066;2023-04-06T11:21:47;10.63;;;7.13;;
5133;SDS011;2585;48.696;10.066;2023-04-06T11:24:21;9.40;;;7.13;;
5133;SDS011;2585;48.696;10.066;2023-04-06T11:26:58;10.10;;;6.80;;
5133;SDS011;2585;48.696;10.066;2023-04-06T11:29:28;9.17;;;6.90;;
5133;SDS011;2585;48.696;10.066;2023-04-06T11:32:03;8.10;;;6.07;;
5133;SDS011;2585;48.696;10.066;2023-04-06T11:34:38;11.00;;;6.97;;
5133;SDS011;2585;48.696;10.066;2023-04-06T11:37:07;11.63;;;7.30;;
5133;SDS011;2585;48.696;10.066;2023-04-06T11:39:54;9.70;;;7.13;;
5133;SDS011;2585;48.696;10.066;2023-04-06T11:42:23;9.90;;;6.83;;
5133;SDS011;2585;48.696;10.066;2023-04-06T11:44:53;8.40;;;6.70;;
5133;SDS011;2585;48.696;10.066;2023-04-06T11:47:27;9.77;;;7.40;;
5133;SDS011;2585;48.696;10.066;2023-04-06T11:50:12;11.10;;;7.30;;
5133;SDS011;2585;48.696;10.066;2023-04-06T11:52:41;10.13;;;7.27;;
5133;SDS011;2585;48.696;10.066;2023-04-06T11:55:15;9.43;;;7.80;;
5133;SDS011;2585;48.696;10.066;2023-04-06T11:57:43;11.37;;;7.83;;
5133;SDS011;2585;48.696;10.066;2023-04-06T12:00:11;10.27;;;7.53;;
5133;SDS011;2585;48.696;10.066;2023-04-06T12:02:39;12.23;;;7.87;;
5133;SDS011;2585;48.696;10.066;2023-04-06T12:05:06;9.73;;;7.53;;
5133;SDS011;2585;48.696;10.066;2023-04-06T12:07:34;9.93;;;7.77;;
5133;SDS011;2585;48.696;10.066;2023-04-06T12:10:02;12.33;;;7.27;;
5133;SDS011;2585;48.696;10.066;2023-04-06T12:12:30;10.50;;;7.90;;
5133;SDS011;2585;48.696;10.066;2023-04-06T12:14:57;9.20;;;7.40;;
5133;SDS011;2585;48.696;10.066;2023-04-06T12:17:24;9.30;;;7.30;;
5133;SDS011;2585;48.696;10.066;2023-04-06T12:19:51;9.27;;;6.70;;
5133;SDS011;2585;48.696;10.066;2023-04-06T12:22:18;9.20;;;7.10;;
5133;SDS011;2585;48.696;10.066;2023-04-06T12:24:45;8.93;;;6.40;;
5133;SDS011;2585;48.696;10.066;2023-04-06T12:27:12;11.97;;;7.20;;
5133;SDS011;2585;48.696;10.066;2023-04-06T12:29:39;9.57;;;7.27;;
5133;SDS011;2585;48.696;10.066;2023-04-06T12:32:05;7.93;;;6.17;;
5133;SDS011;2585;48.696;10.066;2023-04-06T12:34:32;7.20;;;5.60;;
5133;SDS011;2585;48.696;10.066;2023-04-06T12:36:59;9.80;;;6.90;;
5133;SDS011;2585;48.696;10.066;2023-04-06T12:39:29;8.13;;;6.73;;
5133;SDS011;2585;48.696;10.066;2023-04-06T12:41:56;10.10;;;6.67;;
5133;SDS011;2585;48.696;10.066;2023-04-06T12:44:23;9.67;;;7.07;;
5133;SDS011;2585;48.696;10.066;2023-04-06T12:46:52;9.73;;;6.80;;
5133;SDS011;2585;48.696;10.066;2023-04-06T12:49:19;8.23;;;6.80;;
5133;SDS011;2585;48.696;10.066;2023-04-06T12:51:46;7.53;;;6.73;;
5133;SDS011;2585;48.696;10.066;2023-04-06T12:54:13;6.60;;;5.87;;
5133;SDS011;2585;48.696;10.066;2023-04-06T12:56:40;9.40;;;6.97;;
5133;SDS011;2585;48.696;10.066;2023-04-06T12:59:07;9.00;;;7.03;;
5133;SDS011;2585;48.696;10.066;2023-04-06T13:01:34;8.67;;;6.10;;
5133;SDS011;2585;48.696;10.066;2023-04-06T13:04:01;9.00;;;6.27;;
5133;SDS011;2585;48.696;10.066;2023-04-06T13:06:28;8.70;;;6.90;;
5133;SDS011;2585;48.696;10.066;2023-04-06T13:08:56;7.10;;;6.33;;
5133;SDS011;2585;48.696;10.066;2023-04-06T13:11:23;9.67;;;6.70;;
5133;SDS011;2585;48.696;10.066;2023-04-06T13:13:54;9.40;;;5.80;;
5133;SDS011;2585;48.696;10.066;2023-04-06T13:16:21;8.73;;;7.47;;
5133;SDS011;2585;48.696;10.066;2023-04-06T13:18:48;8.43;;;6.87;;
5133;SDS011;2585;48.696;10.066;2023-04-06T13:21:15;8.10;;;5.83;;
5133;SDS011;2585;48.696;10.066;2023-04-06T13:23:43;7.57;;;6.77;;
5133;SDS011;2585;48.696;10.066;2023-04-06T13:26:10;7.17;;;6.30;;
5133;SDS011;2585;48.696;10.066;2023-04-06T13:28:39;9.17;;;7.30;;
5133;SDS011;2585;48.696;10.066;2023-04-06T13:31:07;9.37;;;6.43;;
5133;SDS011;2585;48.696;10.066;2023-04-06T13:33:34;11.53;;;7.03;;
5133;SDS011;2585;48.696;10.066;2023-04-06T13:36:01;8.57;;;6.90;;
5133;SDS011;2585;48.696;10.066;2023-04-06T13:38:29;8.77;;;6.97;;
5133;SDS011;2585;48.696;10.066;2023-04-06T13:40:56;7.93;;;6.63;;
5133;SDS011;2585;48.696;10.066;2023-04-06T13:43:23;6.30;;;5.70;;
5133;SDS011;2585;48.696;10.066;2023-04-06T13:45:53;8.27;;;6.33;;
5133;SDS011;2585;48.696;10.066;2023-04-06T13:48:24;9.70;;;7.60;;
5133;SDS011;2585;48.696;10.066;2023-04-06T13:50:52;10.00;;;6.90;;
5133;SDS011;2585;48.696;10.066;2023-04-06T13:53:19;12.40;;;7.27;;
5133;SDS011;2585;48.696;10.066;2023-04-06T13:55:53;9.13;;;7.17;;
5133;SDS011;2585;48.696;10.066;2023-04-06T13:58:20;15.30;;;8.03;;
5133;SDS011;2585;48.696;10.066;2023-04-06T14:00:47;10.70;;;7.90;;
5133;SDS011;2585;48.696;10.066;2023-04-06T14:03:14;8.00;;;7.10;;
5133;SDS011;2585;48.696;10.066;2023-04-06T14:05:41;10.97;;;8.30;;
5133;SDS011;2585;48.696;10.066;2023-04-06T14:08:08;10.23;;;7.57;;
5133;SDS011;2585;48.696;10.066;2023-04-06T14:10:39;9.37;;;7.53;;
5133;SDS011;2585;48.696;10.066;2023-04-06T14:13:08;7.60;;;6.67;;
5133;SDS011;2585;48.696;10.066;2023-04-06T14:15:34;11.37;;;6.70;;
5133;SDS011;2585;48.696;10.066;2023-04-06T14:18:01;8.17;;;6.60;;
5133;SDS011;2585;48.696;10.066;2023-04-06T14:20:30;10.70;;;8.10;;
5133;SDS011;2585;48.696;10.066;2023-04-06T14:23:01;11.60;;;8.40;;
5133;SDS011;2585;48.696;10.066;2023-04-06T14:25:29;9.23;;;8.20;;
5133;SDS011;2585;48.696;10.066;2023-04-06T14:27:58;9.80;;;6.77;;
5133;SDS011;2585;48.696;10.066;2023-04-06T14:30:25;11.33;;;8.73;;
5133;SDS011;2585;48.696;10.066;2023-04-06T14:32:52;11.43;;;8.40;;
5133;SDS011;2585;48.696;10.066;2023-04-06T14:35:18;10.60;;;7.93;;
5133;SDS011;2585;48.696;10.066;2023-04-06T14:37:45;9.03;;;7.53;;
5133;SDS011;2585;48.696;10.066;2023-04-06T14:40:13;10.57;;;8.27;;
5133;SDS011;2585;48.696;10.066;2023-04-06T14:42:40;11.50;;;7.90;;
5133;SDS011;2585;48.696;10.066;2023-04-06T14:45:07;13.20;;;8.87;;
5133;SDS011;2585;48.696;10.066;2023-04-06T14:47:34;9.77;;;7.50;;
5133;SDS011;2585;48.696;10.066;2023-04-06T14:50:01;10.63;;;6.60;;
5133;SDS011;2585;48.696;10.066;2023-04-06T14:52:27;9.63;;;7.43;;
5133;SDS011;2585;48.696;10.066;2023-04-06T14:54:57;12.00;;;7.60;;